Latest Coastal Weather Observations for Cooktown

IDQ60701

Issued at 8:21 pm EST Monday 14 October 2019 (issued every 10 minutes, with the page automatically refreshed every 10 minutes)

About coastal observations | Map of coastal stations | Coastal observations for QLD | Marine services | Other Formats
Station Details ID: 031209 Name: COOKTOWN AIRPORT Lat: -15.45 Lon: 145.19 Height: 4.8 m
Data from the previous 72 hours. | See also: Recent months at Cooktown
Date/Time
EST
Wind Sea
Height
m
Swell Vis
km
Cloud Weather Temp
°C
Press
hPa
Rain since
9am
mm
Dir  Spd
kts
Gust
kts
Height
m
Period
s
Dir
14/08:00pm SE 5 7 - - - - 10 Partly cloudy - 23.4 1015.5 0.0
14/07:30pm ESE 7 10 - - - - 10 - - 23.8 1015.2 0.0
14/07:00pm ESE 6 10 - - - - 10 Partly cloudy - 23.8 1015.2 0.0
14/06:30pm ESE 8 12 - - - - 10 Partly cloudy - 24.5 1014.9 0.0
14/06:00pm ESE 9 13 - - - - 10 - - 25.0 1014.7 0.0
14/05:30pm ESE 11 16 - - - - 10 Partly cloudy - 25.8 1014.7 0.0
14/05:00pm E 12 18 - - - - 10 Partly cloudy - 26.7 1014.3 0.0
14/04:30pm E 12 17 - - - - 10 - - 27.2 1014.2 0.0
14/04:00pm ESE 12 17 - - - - 10 Partly cloudy - 27.3 1014.3 0.0
14/03:30pm E 12 17 - - - - 10 Partly cloudy - 28.0 1014.3 0.0
14/03:00pm ESE 12 17 - - - - 10 - - 29.0 1014.4 0.0
14/02:30pm E 14 17 - - - - 10 - - 28.5 1014.5 0.0
14/02:00pm E 13 18 - - - - 10 Partly cloudy - 29.3 1014.8 0.0
14/01:30pm E 13 19 - - - - 10 Partly cloudy - 29.1 1015.1 0.0
14/01:00pm E 14 19 - - - - 10 Partly cloudy - 28.7 1015.4 0.0
14/12:30pm ESE 13 21 - - - - 10 Partly cloudy - 28.4 1016.0 0.0
14/12:00pm ESE 14 19 - - - - 10 Mostly clear - 29.4 1016.5 0.0
14/11:30am E 14 19 - - - - 10 Partly cloudy - 28.4 1016.8 0.0
14/11:00am E 15 19 - - - - 10 Partly cloudy - 28.4 1017.2 0.0
14/10:30am E 14 20 - - - - 10 Partly cloudy - 27.8 1017.1 0.0
14/10:00am ESE 13 18 - - - - 10 Partly cloudy - 28.0 1017.0 0.0
14/09:30am E 14 19 - - - - 10 Partly cloudy - 28.4 1017.1 0.0
14/09:00am ESE 13 17 - - - - 10 Cloudy - 27.0 1017.0 0.0
14/08:30am ESE 10 16 - - - - 10 Partly cloudy - 27.7 1016.8 0.0
14/08:00am E 13 18 - - - - 10 Partly cloudy - 27.2 1016.6 0.0
14/07:30am E 12 17 - - - - 10 Partly cloudy - 26.5 1016.3 0.0
14/07:00am ESE 11 15 - - - - 10 Partly cloudy - 25.7 1015.8 0.0
14/06:30am E 8 11 - - - - 10 Partly cloudy - 24.7 1015.6 0.0
14/06:00am ESE 7 11 - - - - 10 Mostly cloudy - 23.4 1015.2 0.0
14/05:30am ESE 7 11 - - - - 10 Partly cloudy - 23.4 1014.9 0.0
14/05:00am E 8 11 - - - - 10 Partly cloudy - 23.4 1014.5 0.0
14/04:30am E 6 8 - - - - 10 Partly cloudy - 23.0 1014.2 0.0
14/04:00am E 7 10 - - - - 10 Partly cloudy - 23.1 1014.0 0.0
14/03:30am E 7 9 - - - - 10 Partly cloudy - 23.2 1013.9 0.0
14/03:00am E 5 7 - - - - 10 Partly cloudy - 23.1 1014.0 0.0
14/02:30am E 7 10 - - - - 10 Partly cloudy - 23.1 1014.2 0.0
14/02:00am ESE 5 8 - - - - 10 Partly cloudy - 23.3 1014.6 0.0
14/01:30am ESE 4 6 - - - - 10 Partly cloudy - 23.7 1014.9 0.0
14/01:00am ESE 5 8 - - - - 10 Partly cloudy - 23.7 1015.3 0.0
14/12:30am E 8 11 - - - - 10 Partly cloudy - 24.2 1015.7 0.0
14/12:00am E 6 8 - - - - 10 Partly cloudy - 24.0 1015.9 0.0
 
Date/Time
EST
Wind Sea
Height
m
Swell Vis
km
Cloud Weather Temp
°C
Press
hPa
Rain since
9am
mm
Dir  Spd
kts
Gust
kts
Height
m
Period
s
Dir
13/11:30pm E 7 9 - - - - 10 - - 23.9 1016.0 0.0
13/11:00pm E 6 9 - - - - 10 Partly cloudy - 24.1 1016.2 0.0
13/10:30pm E 9 13 - - - - 10 Partly cloudy - 24.5 1016.2 0.0
13/10:00pm E 7 9 - - - - 10 Partly cloudy - 24.6 1015.9 0.0
13/09:30pm E 9 12 - - - - 10 Partly cloudy - 24.7 1015.6 0.0
13/09:00pm E 9 13 - - - - 10 Cloudy - 24.7 1015.3 0.0
13/08:30pm ESE 9 13 - - - - 10 Partly cloudy - 25.0 1015.0 0.0
13/08:00pm ESE 9 12 - - - - 10 Partly cloudy - 24.7 1014.5 0.0
13/07:30pm E 10 13 - - - - 10 Partly cloudy - 24.9 1014.2 0.0
13/07:00pm ESE 10 12 - - - - 10 Partly cloudy - 25.0 1013.7 0.0
13/06:30pm E 8 13 - - - - 10 Cloudy - 25.1 1013.4 0.0
13/06:00pm E 8 11 - - - - 10 Mostly cloudy - 25.6 1013.1 0.0
13/05:46pm E 11 14 - - - - 10 Partly cloudy - 26.0 1012.9 0.0
13/05:30pm E 13 17 - - - - 10 Partly cloudy - 26.3 1012.7 0.0
13/05:00pm ESE 13 17 - - - - 10 Partly cloudy - 26.7 1012.5 0.0
13/04:30pm ESE 12 17 - - - - 10 Partly cloudy - 28.0 1012.4 0.0
13/04:00pm E 14 17 - - - - 10 Partly cloudy - 27.4 1012.4 0.0
13/03:30pm E 13 18 - - - - 10 Partly cloudy - 28.3 1012.6 0.0
13/03:00pm E 13 17 - - - - 10 - - 29.0 1012.7 0.0
13/02:30pm E 13 18 - - - - 10 Partly cloudy - 28.7 1012.7 0.0
13/02:00pm ESE 13 17 - - - - 10 Partly cloudy - 29.2 1013.1 0.0
13/01:30pm E 13 16 - - - - 10 Partly cloudy - 29.1 1013.6 0.0
13/01:00pm ESE 14 17 - - - - 10 Partly cloudy - 28.3 1014.1 0.0
13/12:30pm E 13 20 - - - - 10 Partly cloudy - 28.5 1014.5 0.0
13/12:00pm E 11 16 - - - - 10 Mostly clear - 30.8 1014.7 0.0
13/11:30am E 11 16 - - - - 10 - - 29.5 1015.1 0.0
13/11:00am E 11 17 - - - - 10 Partly cloudy - 29.8 1015.4 0.0
13/10:30am E 10 16 - - - - 10 Partly cloudy - 29.5 1015.9 0.0
13/10:00am E 9 13 - - - - 10 Partly cloudy - 29.2 1015.8 0.0
13/09:30am E 10 14 - - - - 10 Partly cloudy - 28.4 1016.0 0.0
13/09:00am ESE 10 13 - - - - 10 Cloudy - 27.6 1016.1 0.0
13/08:30am ENE 8 11 - - - - 10 Partly cloudy - 26.2 1015.9 0.0
13/08:00am NNE 4 5 - - - - 10 Partly cloudy - 25.3 1015.7 0.0
13/07:30am NW 4 5 - - - - 10 Partly cloudy - 24.5 1015.2 0.0
13/07:00am CALM 0 0 - - - - 10 - - 22.5 1014.6 0.0
13/06:30am CALM 0 0 - - - - 10 Partly cloudy - 21.8 1014.1 0.0
13/06:00am CALM 0 0 - - - - 10 Cloudy - 21.3 1014.0 0.0
13/05:30am CALM 0 0 - - - - 10 Partly cloudy - 21.3 1013.5 0.0
13/05:00am CALM 0 0 - - - - 10 Cloudy - 20.8 1013.0 0.0
13/04:30am CALM 0 0 - - - - 10 Partly cloudy - 20.7 1012.6 0.0
13/04:00am WNW 3 4 - - - - 10 Partly cloudy - 20.2 1012.2 0.0
13/03:30am CALM 0 0 - - - - 10 Partly cloudy - 20.2 1012.0 0.0
13/03:00am WNW 4 4 - - - - 10 Partly cloudy - 20.6 1011.9 0.0
13/02:30am NW 4 5 - - - - 10 Partly cloudy - 21.0 1011.9 0.0
13/02:00am CALM 0 0 - - - - 10 - - 20.4 1012.1 0.0
13/01:30am CALM 0 0 - - - - 10 - - 20.9 1012.2 0.0
13/01:00am CALM 0 0 - - - - 10 Partly cloudy - 21.2 1012.5 0.0
13/12:30am CALM 0 0 - - - - 10 Partly cloudy - 21.0 1012.7 0.0
13/12:00am CALM 0 0 - - - - 10 Partly cloudy - 20.9 1012.7 0.0
 
Date/Time
EST
Wind Sea
Height
m
Swell Vis
km
Cloud Weather Temp
°C
Press
hPa
Rain since
9am
mm
Dir  Spd
kts
Gust
kts
Height
m
Period
s
Dir
12/11:50pm CALM 0 0 - - - - 10 Partly cloudy - 20.8 1012.7 0.0
12/11:30pm CALM 0 0 - - - - 10 Partly cloudy - 21.1 1012.8 0.0
12/11:19pm CALM 0 0 - - - - 10 Partly cloudy - 21.0 1012.8 0.0
12/11:00pm CALM 0 0 - - - - 10 - - 21.1 1012.9 0.0
12/10:30pm CALM 0 0 - - - - 10 - - 21.5 1012.8 0.0
12/10:00pm CALM 0 0 - - - - 10 - - 22.0 1012.8 0.0
12/09:30pm CALM 0 0 - - - - 10 - - 21.8 1012.6 0.0
12/09:00pm CALM 0 0 - - - - 10 - - 22.3 1012.3 0.0
12/08:30pm ESE 2 3 - - - - 10 - - 23.0 1011.9 0.0
12/08:00pm ESE 4 6 - - - - 10 - - 23.5 1011.3 0.0
12/07:30pm E 5 6 - - - - 10 - - 23.7 1010.9 0.0
12/07:00pm ENE 5 7 - - - - 10 - - 24.4 1010.6 0.0
12/06:30pm ENE 6 8 - - - - 10 - - 25.1 1010.0 0.0
12/06:00pm NE 7 11 - - - - 10 - - 26.1 1009.5 0.0
12/05:30pm NE 9 14 - - - - 10 - - 27.0 1008.8 0.0
12/05:00pm NNE 8 12 - - - - 10 - - 28.1 1008.4 0.0
12/04:30pm ENE 9 13 - - - - 10 - - 28.9 1008.0 0.0
12/04:00pm E 12 16 - - - - 10 - - 28.8 1007.8 0.0
12/03:30pm E 12 16 - - - - 10 - - 29.7 1007.8 0.0
12/03:00pm E 13 19 - - - - 10 - - 29.4 1008.0 0.0
12/02:30pm E 15 19 - - - - 10 - - 29.3 1008.4 0.0
12/02:00pm ESE 14 17 - - - - 10 - - 30.0 1008.6 0.0
12/01:30pm E 14 18 - - - - 10 - - 30.0 1009.1 0.0
12/01:00pm E 12 15 - - - - 10 - - 30.7 1009.7 0.0
12/12:30pm E 13 16 - - - - 10 - - 30.2 1010.3 0.0
12/12:00pm E 12 15 - - - - 10 - - 30.0 1011.0 0.0
12/11:30am E 12 18 - - - - 10 Partly cloudy - 29.7 1011.8 0.0
12/11:00am ENE 8 11 - - - - 10 Partly cloudy - 29.1 1012.4 0.0
12/10:30am WNW 3 9 - - - - 10 Partly cloudy - 29.2 1012.9 0.0
12/10:00am N 5 8 - - - - 10 Partly cloudy - 27.8 1013.2 0.0
12/09:30am NE 5 9 - - - - 10 Partly cloudy - 28.6 1013.4 0.0
12/09:00am NE 2 6 - - - - 10 Mostly clear - 26.7 1013.8 0.0
12/08:30am SW 3 5 - - - - 10 - - 25.1 1013.8 0.0
12/08:00am SW 3 5 - - - - 10 - - 23.7 1013.6 0.0
12/07:30am NW 4 5 - - - - 10 - - 21.4 1013.3 0.0
12/07:00am NW 3 4 - - - - 10 - - 19.5 1013.1 0.0
12/06:30am WNW 5 6 - - - - 10 - - 18.3 1012.7 0.0
12/06:00am CALM 0 0 - - - - 10 - - 17.9 1012.2 0.0
12/05:30am SSW 3 4 - - - - 10 - - 18.5 1011.8 0.0
12/05:00am WSW 2 4 - - - - 10 - - 18.9 1011.6 0.0
12/04:30am W 1 3 - - - - 10 Partly cloudy - 18.9 1011.2 0.0
12/04:00am CALM 0 0 - - - - 10 Partly cloudy - 19.2 1010.8 0.0
12/03:30am CALM 0 0 - - - - 10 Partly cloudy - 19.3 1010.9 0.0
12/03:00am W 3 4 - - - - 10 Mostly cloudy - 19.4 1010.9 0.0
12/02:30am W 4 6 - - - - 10 Partly cloudy - 19.3 1011.0 0.0
12/02:00am WNW 3 4 - - - - 10 Partly cloudy - 19.1 1011.1 0.0
12/01:30am CALM 0 0 - - - - 10 Partly cloudy - 18.8 1011.2 0.0
12/01:00am CALM 0 0 - - - - 10 Partly cloudy - 19.1 1011.4 0.0
12/12:30am CALM 0 0 - - - - 10 Partly cloudy - 19.4 1011.8 0.0
12/12:00am CALM 0 0 - - - - 10 Partly cloudy - 19.4 1012.1 0.0
 
Date/Time
EST
Wind Sea
Height
m
Swell Vis
km
Cloud Weather Temp
°C
Press
hPa
Rain since
9am
mm
Dir  Spd
kts
Gust
kts
Height
m
Period
s
Dir
11/11:30pm CALM 0 0 - - - - 10 - - 19.7 1012.1 0.0
11/11:00pm CALM 0 0 - - - - 10 - - 20.2 1012.3 0.0
11/10:30pm CALM 0 0 - - - - 10 - - 20.4 1012.4 0.0
11/10:00pm CALM 0 0 - - - - 10 - - 20.7 1012.4 0.0
11/09:30pm CALM 0 0 - - - - 10 - - 20.9 1012.4 0.0
11/09:00pm CALM 0 0 - - - - 10 - - 21.4 1012.2 0.0
11/08:30pm CALM 0 0 - - - - 10 - - 22.4 1012.1 0.0

Other formats

Comma delimited format used in spreadsheet applications
http://www.bom.gov.au/fwo/IDQ60701/IDQ60701.95283.axf

JavaScript Object Notation format (JSON) in row-major order
http://www.bom.gov.au/fwo/IDQ60701/IDQ60701.95283.json

Data quality

Most of these data are generated automatically and are frequently updated. Quality checks on data are not normally performed. It is possible for incorrect values to appear. Refer to information at About Latest Weather Observations and please check the disclaimer before using these data.